createdAt,value
2023-05-10T00:02:16.746Z,15.60
2023-05-10T00:06:21.258Z,15.60
2023-05-10T00:10:24.131Z,15.60
2023-05-10T00:14:27.044Z,15.60
2023-05-10T00:18:36.792Z,15.60
2023-05-10T00:22:41.044Z,15.60
2023-05-10T00:26:44.120Z,15.60
2023-05-10T00:30:46.965Z,15.60
2023-05-10T00:34:50.089Z,15.70
2023-05-10T00:38:54.334Z,15.70
2023-05-10T00:42:57.182Z,15.70
2023-05-10T00:47:01.475Z,15.70
2023-05-10T00:51:05.136Z,15.70
2023-05-10T00:55:11.772Z,15.60
2023-05-10T00:59:16.276Z,15.60
2023-05-10T01:03:19.459Z,15.60
2023-05-10T01:07:22.398Z,15.60
2023-05-10T01:11:27.349Z,15.60
2023-05-10T01:15:30.282Z,15.50
2023-05-10T01:19:35.914Z,15.50
2023-05-10T01:23:54.285Z,15.50
2023-05-10T01:28:25.843Z,15.50
2023-05-10T01:32:41.183Z,15.40
2023-05-10T01:36:48.513Z,15.40
2023-05-10T01:41:03.168Z,15.30
2023-05-10T01:45:14.027Z,15.20
2023-05-10T01:49:25.169Z,15.20
2023-05-10T01:53:29.219Z,15.10
2023-05-10T01:57:36.048Z,14.90
2023-05-10T02:01:39.553Z,14.80
2023-05-10T02:05:45.398Z,14.60
2023-05-10T02:09:49.591Z,14.40
2023-05-10T02:13:53.516Z,14.30
2023-05-10T02:18:04.436Z,14.20
2023-05-10T02:22:18.560Z,14.10
2023-05-10T02:26:24.081Z,14.10
2023-05-10T02:30:27.747Z,14.10
2023-05-10T02:34:31.754Z,14.00
2023-05-10T02:38:38.155Z,14.00
2023-05-10T02:42:45.518Z,13.90
2023-05-10T02:46:48.925Z,14.00
2023-05-10T02:50:54.321Z,13.90
2023-05-10T02:55:02.719Z,13.90
2023-05-10T02:59:05.974Z,13.90
2023-05-10T03:03:08.790Z,13.80
2023-05-10T03:07:12.086Z,13.80
2023-05-10T03:11:30.940Z,13.80
2023-05-10T03:15:48.991Z,13.80
2023-05-10T03:20:12.854Z,13.80
2023-05-10T03:24:17.223Z,13.90
2023-05-10T03:28:24.261Z,13.90
2023-05-10T03:32:28.117Z,13.80
2023-05-10T03:36:31.244Z,13.80
2023-05-10T03:40:35.008Z,13.80
2023-05-10T03:44:39.776Z,13.70
2023-05-10T03:48:42.715Z,13.70
2023-05-10T03:52:45.561Z,13.70
2023-05-10T03:56:49.352Z,13.70
2023-05-10T04:00:55.261Z,13.60
2023-05-10T04:04:58.640Z,13.70
2023-05-10T04:09:04.973Z,13.70
2023-05-10T04:13:07.855Z,13.60
2023-05-10T04:17:12.158Z,13.70
2023-05-10T04:21:15.259Z,13.60
2023-05-10T04:25:18.205Z,13.60
2023-05-10T04:29:22.434Z,13.60
2023-05-10T04:33:26.870Z,13.50
2023-05-10T04:37:29.689Z,13.60
2023-05-10T04:41:32.556Z,13.60
2023-05-10T04:45:35.256Z,13.60
2023-05-10T04:49:39.819Z,13.50
2023-05-10T04:53:46.464Z,13.50
2023-05-10T04:57:54.044Z,13.50
2023-05-10T05:01:56.911Z,13.50
2023-05-10T05:06:01.132Z,13.50
2023-05-10T05:10:04.138Z,13.50
2023-05-10T05:14:06.897Z,13.50
2023-05-10T05:18:09.710Z,13.40
2023-05-10T05:22:13.723Z,13.40
2023-05-10T05:26:16.970Z,13.30
2023-05-10T05:30:19.840Z,13.40
2023-05-10T05:34:23.122Z,13.30
2023-05-10T05:38:27.343Z,13.30
2023-05-10T05:42:30.231Z,13.30
2023-05-10T05:46:33.130Z,13.30
2023-05-10T05:50:35.956Z,13.30
2023-05-10T05:54:40.130Z,13.30
2023-05-10T05:58:42.951Z,13.30
2023-05-10T06:02:46.130Z,13.30
2023-05-10T06:06:49.053Z,13.20
2023-05-10T06:10:53.309Z,13.20
2023-05-10T06:14:56.041Z,13.10
2023-05-10T06:18:58.805Z,13.10
2023-05-10T06:23:01.697Z,13.20
2023-05-10T06:27:05.759Z,13.20
2023-05-10T06:31:08.878Z,13.10
2023-05-10T06:35:11.904Z,13.10
2023-05-10T06:39:14.891Z,13.20
2023-05-10T06:43:19.175Z,13.30
2023-05-10T06:47:22.902Z,13.30
2023-05-10T06:51:25.910Z,13.40
2023-05-10T06:55:28.703Z,13.40
2023-05-10T06:59:32.934Z,13.40
2023-05-10T07:03:37.245Z,13.40
2023-05-10T07:07:40.584Z,13.50
2023-05-10T07:11:43.574Z,13.50
2023-05-10T07:15:47.881Z,13.60
2023-05-10T07:19:50.777Z,13.60
2023-05-10T07:23:53.521Z,13.70
2023-05-10T07:27:56.321Z,13.80
2023-05-10T07:32:00.565Z,14.00
2023-05-10T07:36:03.440Z,14.10
2023-05-10T07:40:07.355Z,14.10
2023-05-10T07:44:10.284Z,14.20
2023-05-10T07:48:14.415Z,14.40
2023-05-10T07:52:17.289Z,14.50
2023-05-10T07:56:26.014Z,14.70
2023-05-10T08:00:29.177Z,14.70
2023-05-10T08:04:33.338Z,14.80
2023-05-10T08:08:36.156Z,14.80
2023-05-10T08:12:39.373Z,14.70
2023-05-10T08:16:42.254Z,14.60
2023-05-10T08:20:46.718Z,14.50
2023-05-10T08:24:49.472Z,14.40
2023-05-10T08:28:52.254Z,14.30
2023-05-10T08:32:55.041Z,14.30
2023-05-10T08:36:59.388Z,14.30
2023-05-10T08:41:04.252Z,14.50
2023-05-10T08:45:08.976Z,14.50
2023-05-10T08:49:14.995Z,14.50
2023-05-10T08:53:20.582Z,14.50
2023-05-10T08:57:23.589Z,14.50
2023-05-10T09:01:27.466Z,14.40
2023-05-10T09:05:30.513Z,14.50
2023-05-10T09:09:35.878Z,14.70
2023-05-10T09:13:38.666Z,14.90
2023-05-10T09:17:44.249Z,15.10
2023-05-10T09:21:47.184Z,15.30
2023-05-10T09:26:05.474Z,15.50
2023-05-10T09:30:09.852Z,15.60
2023-05-10T09:34:12.749Z,15.70
2023-05-10T09:38:15.476Z,15.90
2023-05-10T09:42:20.540Z,16.20
2023-05-10T09:46:23.511Z,16.70
2023-05-10T09:50:26.912Z,16.90
2023-05-10T09:54:29.872Z,17.40
2023-05-10T09:58:39.019Z,18.00
2023-05-10T10:02:42.005Z,18.40
2023-05-10T10:06:44.779Z,18.70
2023-05-10T10:10:50.346Z,18.80
2023-05-10T10:14:55.427Z,18.70
2023-05-10T10:18:58.887Z,19.10
2023-05-10T10:23:01.638Z,19.00
2023-05-10T10:27:22.856Z,18.80
2023-05-10T10:31:37.263Z,18.70
2023-05-10T10:36:01.927Z,19.10
2023-05-10T10:40:25.700Z,19.10
2023-05-10T10:44:45.628Z,18.90
2023-05-10T10:48:55.263Z,18.80
2023-05-10T10:53:13.134Z,18.60
2023-05-10T10:57:18.657Z,18.30
2023-05-10T11:01:22.526Z,18.30
2023-05-10T11:05:38.453Z,18.90
2023-05-10T11:09:42.295Z,19.00
2023-05-10T11:13:48.390Z,18.60
2023-05-10T11:17:53.531Z,18.60
2023-05-10T11:22:16.111Z,18.80
2023-05-10T11:26:19.855Z,19.20
2023-05-10T11:30:24.661Z,19.20
2023-05-10T11:34:30.546Z,19.10
2023-05-10T11:38:35.357Z,18.90
2023-05-10T11:42:39.192Z,18.70
2023-05-10T11:46:42.050Z,18.50
2023-05-10T11:50:51.944Z,18.60
2023-05-10T11:54:59.450Z,19.10
2023-05-10T11:59:02.819Z,19.60
2023-05-10T12:03:08.042Z,19.80
2023-05-10T12:07:11.441Z,19.90
2023-05-10T12:11:17.179Z,19.80
2023-05-10T12:15:21.847Z,19.50
2023-05-10T12:19:24.918Z,18.90
2023-05-10T12:23:28.580Z,18.20
2023-05-10T12:27:35.331Z,17.70
2023-05-10T12:31:53.840Z,17.50
2023-05-10T12:35:57.581Z,17.20
2023-05-10T12:40:01.939Z,17.20
2023-05-10T12:44:06.444Z,17.30
2023-05-10T12:48:09.410Z,17.40
2023-05-10T12:52:12.441Z,17.60
2023-05-10T12:56:18.890Z,17.70
2023-05-10T13:00:23.540Z,17.80
2023-05-10T13:04:30.195Z,18.00
2023-05-10T13:08:34.652Z,18.20
2023-05-10T13:12:37.731Z,18.30
2023-05-10T13:16:42.037Z,18.30
2023-05-10T13:20:45.229Z,18.30
2023-05-10T13:24:48.182Z,18.20
2023-05-10T13:28:52.645Z,18.30
2023-05-10T13:32:56.949Z,18.40
2023-05-10T13:36:59.984Z,18.50
2023-05-10T13:41:02.851Z,18.80
2023-05-10T13:45:07.118Z,18.90
2023-05-10T13:49:12.008Z,19.10
2023-05-10T13:53:15.318Z,19.30
2023-05-10T13:57:18.108Z,19.30
2023-05-10T14:01:21.058Z,19.30
2023-05-10T14:05:26.289Z,19.20
2023-05-10T14:09:29.485Z,19.10
2023-05-10T14:13:32.625Z,18.90
2023-05-10T14:17:35.714Z,18.40
2023-05-10T14:21:40.267Z,17.50
2023-05-10T14:25:43.062Z,16.70
2023-05-10T14:29:45.861Z,16.40
2023-05-10T14:33:48.805Z,16.10
2023-05-10T14:37:53.002Z,15.90
2023-05-10T14:41:55.851Z,15.80
2023-05-10T14:45:58.700Z,15.70
2023-05-10T14:50:01.561Z,15.60
2023-05-10T14:54:06.855Z,15.60
2023-05-10T14:58:09.699Z,15.50
2023-05-10T15:02:12.565Z,15.40
2023-05-10T15:06:16.474Z,15.30
2023-05-10T15:10:21.093Z,15.10
2023-05-10T15:14:24.202Z,15.00
2023-05-10T15:18:27.335Z,15.10
2023-05-10T15:22:31.049Z,15.10
2023-05-10T15:26:36.823Z,15.10
2023-05-10T15:30:40.721Z,15.20
2023-05-10T15:34:43.527Z,15.40
2023-05-10T15:38:46.428Z,15.40
2023-05-10T15:42:51.004Z,15.40
2023-05-10T15:46:53.922Z,15.40
2023-05-10T15:50:57.822Z,15.40
2023-05-10T15:55:00.580Z,15.30
2023-05-10T15:59:06.120Z,15.20
2023-05-10T16:03:09.453Z,15.20
2023-05-10T16:07:13.002Z,15.10
2023-05-10T16:11:16.113Z,14.90
2023-05-10T16:15:21.769Z,14.90
2023-05-10T16:19:24.795Z,14.80
2023-05-10T16:23:28.121Z,14.80
2023-05-10T16:27:39.143Z,14.70
2023-05-10T16:31:43.891Z,14.70
2023-05-10T16:35:46.833Z,14.60
2023-05-10T16:39:50.091Z,14.60
2023-05-10T16:43:53.216Z,14.50
2023-05-10T16:47:57.514Z,14.50
2023-05-10T16:52:06.954Z,14.50
2023-05-10T16:56:10.532Z,14.50
2023-05-10T17:00:14.596Z,14.50
2023-05-10T17:04:19.139Z,14.40
2023-05-10T17:08:23.231Z,14.30
2023-05-10T17:12:26.289Z,14.20
2023-05-10T17:16:30.147Z,14.20
2023-05-10T17:20:34.967Z,14.20
2023-05-10T17:24:38.068Z,14.30
2023-05-10T17:28:41.186Z,14.30
2023-05-10T17:32:44.133Z,14.30
2023-05-10T17:36:48.490Z,14.20
2023-05-10T17:40:52.664Z,14.20
2023-05-10T17:44:55.664Z,14.20
2023-05-10T17:48:58.722Z,14.20
2023-05-10T17:53:03.770Z,14.20
2023-05-10T17:57:07.204Z,14.30
2023-05-10T18:01:10.399Z,14.30
2023-05-10T18:05:13.717Z,14.40
2023-05-10T18:09:18.402Z,14.40
2023-05-10T18:13:21.577Z,14.40
2023-05-10T18:17:24.921Z,14.40
2023-05-10T18:21:28.041Z,14.30
2023-05-10T18:25:32.353Z,14.30
2023-05-10T18:29:36.268Z,14.30
2023-05-10T18:33:39.805Z,14.20
2023-05-10T18:37:43.558Z,14.10
2023-05-10T18:41:47.881Z,14.00
2023-05-10T18:45:51.229Z,14.00
2023-05-10T18:49:54.466Z,14.00
2023-05-10T18:53:57.634Z,14.00
2023-05-10T18:58:02.144Z,14.00
2023-05-10T19:02:05.491Z,14.00
2023-05-10T19:06:09.108Z,13.90
2023-05-10T19:10:13.856Z,13.90
2023-05-10T19:14:18.215Z,13.90
2023-05-10T19:18:22.236Z,13.90
2023-05-10T19:22:43.567Z,13.90
2023-05-10T19:26:49.167Z,13.90
2023-05-10T19:30:53.935Z,14.00
2023-05-10T19:34:56.843Z,14.00
2023-05-10T19:38:59.857Z,14.00
2023-05-10T19:43:03.175Z,14.00
2023-05-10T19:47:09.126Z,13.90
2023-05-10T19:51:12.354Z,13.90
2023-05-10T19:55:17.031Z,13.90
2023-05-10T19:59:20.253Z,13.90
2023-05-10T20:03:24.689Z,13.80
2023-05-10T20:07:27.655Z,13.80
2023-05-10T20:11:31.064Z,13.80
2023-05-10T20:15:34.379Z,13.80
2023-05-10T20:19:38.860Z,13.80
2023-05-10T20:23:42.007Z,13.90
2023-05-10T20:27:45.096Z,13.90
2023-05-10T20:31:48.075Z,13.90
2023-05-10T20:35:53.058Z,13.90
2023-05-10T20:39:57.623Z,13.80
2023-05-10T20:44:00.712Z,13.70
2023-05-10T20:48:03.868Z,13.70
2023-05-10T20:52:08.823Z,13.70
2023-05-10T20:56:12.924Z,13.70
2023-05-10T21:00:16.763Z,13.60
2023-05-10T21:04:19.889Z,13.60
2023-05-10T21:08:24.437Z,13.60
2023-05-10T21:12:27.482Z,13.60
2023-05-10T21:16:30.635Z,13.60
2023-05-10T21:20:34.006Z,13.40
2023-05-10T21:24:39.518Z,13.40
2023-05-10T21:28:43.768Z,13.40
2023-05-10T21:32:49.748Z,13.30
2023-05-10T21:36:52.981Z,13.40
2023-05-10T21:40:57.962Z,13.40
2023-05-10T21:45:01.110Z,13.30
2023-05-10T21:49:04.810Z,13.30
2023-05-10T21:53:10.344Z,13.20
2023-05-10T21:57:21.699Z,13.30
2023-05-10T22:01:30.300Z,13.20
2023-05-10T22:05:38.189Z,13.20
2023-05-10T22:09:43.321Z,13.20
2023-05-10T22:13:59.539Z,13.20
2023-05-10T22:18:19.670Z,13.20
2023-05-10T22:22:24.943Z,13.20
2023-05-10T22:26:36.998Z,13.20
2023-05-10T22:36:24.885Z,13.20
2023-05-10T22:40:34.823Z,13.20
2023-05-10T22:44:38.216Z,13.20
2023-05-10T22:48:44.565Z,13.20
2023-05-10T22:52:47.750Z,13.30
2023-05-10T22:56:50.975Z,13.30
2023-05-10T23:00:55.418Z,13.20
2023-05-10T23:05:00.337Z,13.20
2023-05-10T23:09:10.947Z,13.20
2023-05-10T23:13:15.480Z,13.20
2023-05-10T23:17:20.541Z,13.20
2023-05-10T23:21:25.944Z,13.20
2023-05-10T23:25:33.335Z,13.20
2023-05-10T23:29:42.552Z,13.20
2023-05-10T23:33:46.412Z,13.20
2023-05-10T23:49:37.700Z,13.10
